Time;durP1;ratioP1;P1;durP2;ratioP2;P2;SDS_P1;SDS_P2;PMS_P1;PMS_P2;Temp;Humidity;BMP_temperature;BMP_pressure;BME280_temperature;BME280_humidity;BME280_pressure;Samples;Min_cycle;Max_cycle;Signal;HPM_P1;HPM_P2
2021/06/09 00:00:52;;;;;;;13.20;6.55;;;;;;;;;;5045300;28;20630;-47
2021/06/09 00:03:20;;;;;;;14.20;8.43;;;;;;;;;;5045650;28;20021;-47
2021/06/09 00:05:49;;;;;;;18.85;14.68;;;;;;;;;;5045480;28;20032;-46
2021/06/09 00:08:15;;;;;;;18.17;11.75;;;;;;;;;;5045793;28;20025;-45
2021/06/09 00:10:41;;;;;;;23.23;15.23;;;;;;;;;;5045390;28;20028;-47
2021/06/09 00:13:10;;;;;;;20.05;11.35;;;;;;;;;;5045438;28;20075;-46
2021/06/09 00:15:36;;;;;;;14.80;11.68;;;;;;;;;;5045150;28;20066;-46
2021/06/09 00:18:03;;;;;;;23.00;9.00;;;;;;;;;;5045518;28;20552;-46
2021/06/09 00:20:29;;;;;;;24.13;15.82;;;;;;;;;;5045581;28;20055;-47
2021/06/09 00:22:56;;;;;;;39.22;24.67;;;;;;;;;;5045421;28;20533;-46
2021/06/09 00:25:22;;;;;;;18.92;12.32;;;;;;;;;;5045347;28;20025;-46
2021/06/09 00:27:54;;;;;;;44.38;32.17;;;;;;;;;;5045580;28;20029;-46
2021/06/09 00:30:26;;;;;;;18.50;14.27;;;;;;;;;;5045754;28;20024;-46
2021/06/09 00:32:52;;;;;;;24.10;17.27;;;;;;;;;;5045350;28;20025;-47
2021/06/09 00:35:18;;;;;;;36.08;22.85;;;;;;;;;;5044822;28;20025;-47
2021/06/09 00:37:44;;;;;;;16.52;10.93;;;;;;;;;;5046043;28;20028;-47
2021/06/09 00:40:11;;;;;;;23.17;15.23;;;;;;;;;;5048928;28;20039;-47
2021/06/09 00:42:37;;;;;;;20.15;14.57;;;;;;;;;;5048604;28;20032;-47
2021/06/09 00:45:04;;;;;;;16.33;10.02;;;;;;;;;;5048742;28;20028;-47
2021/06/09 00:47:30;;;;;;;12.18;8.10;;;;;;;;;;5057046;28;20032;-47
2021/06/09 00:49:57;;;;;;;11.10;7.45;;;;;;;;;;5095871;28;20024;-47
2021/06/09 00:52:27;;;;;;;10.63;6.78;;;;;;;;;;5096103;28;20020;-47
2021/06/09 00:54:53;;;;;;;16.05;10.43;;;;;;;;;;5095935;28;20024;-47
2021/06/09 00:57:20;;;;;;;30.00;16.10;;;;;;;;;;5095934;28;20028;-46
2021/06/09 00:59:47;;;;;;;22.17;13.05;;;;;;;;;;5095905;28;20029;-45
2021/06/09 01:02:13;;;;;;;43.80;26.67;;;;;;;;;;5096108;28;20020;-47
2021/06/09 01:04:40;;;;;;;22.00;15.18;;;;;;;;;;5095830;28;20099;-48
2021/06/09 01:07:08;;;;;;;23.83;18.67;;;;;;;;;;5095785;28;20012;-47
2021/06/09 01:09:35;;;;;;;20.90;12.30;;;;;;;;;;5095733;28;20024;-47
2021/06/09 01:12:01;;;;;;;15.02;9.55;;;;;;;;;;5095718;28;20016;-46
2021/06/09 01:14:27;;;;;;;26.63;18.00;;;;;;;;;;5095577;28;20060;-48
2021/06/09 01:16:53;;;;;;;17.15;12.85;;;;;;;;;;5095712;28;20024;-49
2021/06/09 01:19:20;;;;;;;13.55;7.88;;;;;;;;;;5095704;28;20024;-46
2021/06/09 01:21:47;;;;;;;6.85;5.13;;;;;;;;;;5095660;28;20032;-47
2021/06/09 01:24:13;;;;;;;8.57;5.20;;;;;;;;;;5095585;28;20020;-45
2021/06/09 01:26:39;;;;;;;9.02;4.55;;;;;;;;;;5095475;28;20060;-46
2021/06/09 01:29:06;;;;;;;7.00;4.68;;;;;;;;;;5095265;28;20016;-46
2021/06/09 01:31:33;;;;;;;9.35;5.00;;;;;;;;;;5095321;28;20028;-46
2021/06/09 01:34:04;;;;;;;11.55;4.80;;;;;;;;;;5095349;28;20027;-46
2021/06/09 01:36:30;;;;;;;;;;;;;;;;;;5095607;28;20051;-44
2021/06/09 01:38:56;;;;;;;13.82;4.75;;;;;;;;;;5095152;28;20264;-46
2021/06/09 01:41:23;;;;;;;7.85;5.25;;;;;;;;;;5095160;28;20028;-45
2021/06/09 01:43:49;;;;;;;16.98;8.40;;;;;;;;;;5094820;28;20035;-46
2021/06/09 01:46:16;;;;;;;100.32;76.03;;;;;;;;;;5093979;28;20040;-45
2021/06/09 01:48:43;;;;;;;36.90;26.67;;;;;;;;;;5094829;28;20483;-46
2021/06/09 01:51:09;;;;;;;36.33;27.55;;;;;;;;;;5094888;28;20024;-45
2021/06/09 01:53:35;;;;;;;15.88;10.57;;;;;;;;;;5095004;28;20024;-45
2021/06/09 01:56:03;;;;;;;36.30;28.55;;;;;;;;;;5094748;28;20078;-46
2021/06/09 01:58:29;;;;;;;63.17;45.05;;;;;;;;;;5094691;28;20017;-46
2021/06/09 02:00:55;;;;;;;46.53;32.30;;;;;;;;;;5094760;28;20495;-45
2021/06/09 02:03:21;;;;;;;39.22;29.60;;;;;;;;;;5094732;28;20016;-46
2021/06/09 02:05:47;;;;;;;49.38;33.72;;;;;;;;;;5094967;28;20020;-47
2021/06/09 02:08:15;;;;;;;47.70;36.63;;;;;;;;;;5094541;28;20116;-47
2021/06/09 02:10:42;;;;;;;40.92;29.90;;;;;;;;;;5093284;28;20020;-46
2021/06/09 02:13:10;;;;;;;56.58;39.63;;;;;;;;;;5094060;28;20044;-47
2021/06/09 02:15:36;;;;;;;23.25;15.98;;;;;;;;;;5094465;28;20032;-47
2021/06/09 02:18:10;;;;;;;16.27;9.98;;;;;;;;;;5094324;28;20016;-46
2021/06/09 02:20:38;;;;;;;10.15;8.82;;;;;;;;;;5094391;28;20028;-46
2021/06/09 02:23:04;;;;;;;12.85;7.50;;;;;;;;;;5094420;28;20020;-46
2021/06/09 02:25:33;;;;;;;16.77;8.65;;;;;;;;;;5094235;28;20028;-45
2021/06/09 02:27:59;;;;;;;9.90;7.40;;;;;;;;;;5094329;28;20027;-46
2021/06/09 02:30:25;;;;;;;15.80;8.05;;;;;;;;;;5094216;28;20024;-46
2021/06/09 02:32:51;;;;;;;9.50;6.90;;;;;;;;;;5094071;28;20469;-45
2021/06/09 02:35:19;;;;;;;9.15;5.80;;;;;;;;;;5093923;28;20032;-45
2021/06/09 02:37:49;;;;;;;6.22;5.50;;;;;;;;;;5094030;28;20391;-44
2021/06/09 02:40:16;;;;;;;9.43;5.20;;;;;;;;;;5093989;28;20460;-45
2021/06/09 02:42:42;;;;;;;8.15;5.55;;;;;;;;;;5093739;28;20055;-45
2021/06/09 02:45:12;;;;;;;8.55;5.40;;;;;;;;;;5093976;28;20026;-45
2021/06/09 02:47:39;;;;;;;8.98;5.93;;;;;;;;;;5093987;28;20039;-45
2021/06/09 02:50:06;;;;;;;7.18;5.35;;;;;;;;;;5093927;28;20027;-45
2021/06/09 02:53:02;;;;;;;10.80;6.15;;;;;;;;;;5093832;28;20408;-46
2021/06/09 02:55:40;;;;;;;11.10;5.63;;;;;;;;;;5093225;28;20048;-45
2021/06/09 02:58:12;;;;;;;7.75;5.20;;;;;;;;;;5093765;28;20380;-46
2021/06/09 03:00:38;;;;;;;8.77;5.07;;;;;;;;;;5093290;28;20027;-46
2021/06/09 03:03:11;;;;;;;8.38;5.30;;;;;;;;;;5094349;28;20027;-46
2021/06/09 03:05:46;;;;;;;11.52;5.15;;;;;;;;;;5093642;28;20032;-45
2021/06/09 03:08:18;;;;;;;8.60;5.00;;;;;;;;;;5093860;28;20020;-46
2021/06/09 03:10:50;;;;;;;12.40;5.88;;;;;;;;;;5093654;28;20099;-46
2021/06/09 03:13:34;;;;;;;13.65;4.85;;;;;;;;;;5093471;28;20481;-47
2021/06/09 03:16:08;;;;;;;8.55;5.43;;;;;;;;;;5093454;28;20403;-47
2021/06/09 03:18:41;;;;;;;6.93;5.45;;;;;;;;;;5093711;28;20056;-46
2021/06/09 03:21:09;;;;;;;11.40;5.50;;;;;;;;;;5093413;28;20120;-45
2021/06/09 03:23:51;;;;;;;9.43;5.15;;;;;;;;;;5093631;28;20460;-45
2021/06/09 03:26:26;;;;;;;14.65;5.93;;;;;;;;;;5093379;28;20059;-45
2021/06/09 03:29:07;;;;;;;9.70;5.57;;;;;;;;;;5093373;28;20560;-45
2021/06/09 03:31:45;;;;;;;13.43;5.45;;;;;;;;;;5093861;28;20055;-46
2021/06/09 03:34:32;;;;;;;9.52;5.53;;;;;;;;;;5093454;28;20028;-46
2021/06/09 03:37:00;;;;;;;12.93;6.07;;;;;;;;;;5093134;28;20047;-46
2021/06/09 03:39:27;;;;;;;7.63;5.25;;;;;;;;;;5093294;28;20099;-46
2021/06/09 03:41:55;;;;;;;9.38;5.72;;;;;;;;;;5093443;28;20534;-44
2021/06/09 03:44:24;;;;;;;10.38;5.57;;;;;;;;;;5093241;28;20044;-44
2021/06/09 03:46:51;;;;;;;15.65;5.43;;;;;;;;;;5093292;28;20440;-46
2021/06/09 03:49:20;;;;;;;7.47;5.50;;;;;;;;;;5093300;28;20020;-45
2021/06/09 03:51:47;;;;;;;7.82;5.15;;;;;;;;;;5093150;28;20042;-45
2021/06/09 03:54:13;;;;;;;9.05;5.03;;;;;;;;;;5093182;28;20420;-45
2021/06/09 03:56:41;;;;;;;12.32;5.43;;;;;;;;;;5093207;28;20038;-46
2021/06/09 03:59:08;;;;;;;19.15;7.95;;;;;;;;;;5093208;28;20376;-46
2021/06/09 04:01:40;;;;;;;18.10;11.25;;;;;;;;;;5093046;28;20379;-46
2021/06/09 04:04:07;;;;;;;19.73;13.27;;;;;;;;;;5093130;28;20017;-47
2021/06/09 04:06:34;;;;;;;17.30;11.30;;;;;;;;;;5093014;28;20082;-46
2021/06/09 04:09:04;;;;;;;17.33;12.30;;;;;;;;;;5093282;28;20431;-46
2021/06/09 04:11:32;;;;;;;28.77;21.92;;;;;;;;;;5093038;28;20173;-46
2021/06/09 04:14:00;;;;;;;22.60;16.65;;;;;;;;;;5095522;28;20048;-46
2021/06/09 04:16:28;;;;;;;17.88;9.48;;;;;;;;;;5096809;28;20377;-45
2021/06/09 04:18:55;;;;;;;15.13;7.68;;;;;;;;;;5096848;28;20414;-46
2021/06/09 04:21:21;;;;;;;13.65;8.43;;;;;;;;;;5095576;28;20474;-45
2021/06/09 04:23:47;;;;;;;14.32;10.02;;;;;;;;;;5096706;28;20024;-45
2021/06/09 04:26:15;;;;;;;12.38;6.88;;;;;;;;;;5096784;28;20099;-46
2021/06/09 04:28:43;;;;;;;9.43;5.88;;;;;;;;;;5096714;28;20049;-46
2021/06/09 04:31:10;;;;;;;13.68;9.90;;;;;;;;;;5096825;28;20028;-46
2021/06/09 04:33:37;;;;;;;14.73;8.35;;;;;;;;;;5096570;28;20027;-44
2021/06/09 04:36:03;;;;;;;17.67;11.75;;;;;;;;;;5096256;28;20035;-46
2021/06/09 04:38:29;;;;;;;15.10;9.10;;;;;;;;;;5096652;28;20380;-46
2021/06/09 04:40:55;;;;;;;17.08;9.18;;;;;;;;;;5096582;28;20028;-47
2021/06/09 04:43:23;;;;;;;19.45;13.50;;;;;;;;;;5096322;28;20186;-47
2021/06/09 04:45:49;;;;;;;8.98;6.97;;;;;;;;;;5096185;28;20134;-46
2021/06/09 04:48:16;;;;;;;11.63;8.25;;;;;;;;;;5096355;28;20035;-46
2021/06/09 04:50:44;;;;;;;22.42;13.98;;;;;;;;;;5096048;28;20020;-47
2021/06/09 04:53:11;;;;;;;60.75;40.03;;;;;;;;;;5096411;28;20047;-47
2021/06/09 04:55:37;;;;;;;23.63;12.52;;;;;;;;;;5096169;28;20024;-46
2021/06/09 04:58:04;;;;;;;34.33;22.60;;;;;;;;;;5096185;28;20031;-45
2021/06/09 05:00:30;;;;;;;23.33;14.82;;;;;;;;;;5096224;28;20031;-47
2021/06/09 05:02:56;;;;;;;20.80;11.75;;;;;;;;;;5096033;28;20385;-46
2021/06/09 05:05:22;;;;;;;62.08;40.00;;;;;;;;;;5095828;28;20024;-46
2021/06/09 05:07:48;;;;;;;60.08;40.92;;;;;;;;;;5095757;28;20086;-45
2021/06/09 05:10:15;;;;;;;60.20;40.83;;;;;;;;;;5095895;28;20058;-46
2021/06/09 05:13:02;;;;;;;34.85;16.38;;;;;;;;;;5095170;28;20036;-46
2021/06/09 05:15:32;;;;;;;43.05;25.77;;;;;;;;;;5095520;28;20032;-48
2021/06/09 05:18:01;;;;;;;22.25;12.55;;;;;;;;;;5095607;28;20016;-47
2021/06/09 05:20:31;;;;;;;18.55;10.43;;;;;;;;;;5095565;28;20024;-47
2021/06/09 05:22:57;;;;;;;21.58;10.68;;;;;;;;;;5095590;28;20021;-46
2021/06/09 05:25:24;;;;;;;16.35;8.55;;;;;;;;;;5095017;28;20039;-46
2021/06/09 05:27:51;;;;;;;17.02;9.32;;;;;;;;;;5095489;28;20024;-46
2021/06/09 05:30:17;;;;;;;31.42;12.93;;;;;;;;;;5095326;28;20020;-47
2021/06/09 05:32:44;;;;;;;25.90;13.77;;;;;;;;;;5094276;28;20032;-47
2021/06/09 05:35:10;;;;;;;17.30;6.95;;;;;;;;;;5095119;28;20048;-48
2021/06/09 05:37:37;;;;;;;10.13;5.40;;;;;;;;;;5095303;28;20031;-48
2021/06/09 05:40:08;;;;;;;24.60;6.43;;;;;;;;;;5095228;28;20027;-48
2021/06/09 05:42:35;;;;;;;8.65;5.60;;;;;;;;;;5095184;28;20502;-47
2021/06/09 05:45:01;;;;;;;12.15;7.82;;;;;;;;;;5095184;28;20384;-47
2021/06/09 05:47:27;;;;;;;11.70;6.00;;;;;;;;;;5095098;28;20038;-47
2021/06/09 05:50:06;;;;;;;8.63;5.32;;;;;;;;;;5094973;28;20032;-48
2021/06/09 05:52:33;;;;;;;10.02;4.93;;;;;;;;;;5095044;28;20020;-50
2021/06/09 05:54:59;;;;;;;22.50;6.13;;;;;;;;;;5094770;28;20099;-50
2021/06/09 05:57:25;;;;;;;34.53;7.10;;;;;;;;;;5094763;28;20484;-47
2021/06/09 05:59:51;;;;;;;12.60;5.93;;;;;;;;;;5094770;28;20112;-47
2021/06/09 06:02:18;;;;;;;33.97;7.22;;;;;;;;;;5094676;28;20024;-47
2021/06/09 06:04:44;;;;;;;12.98;6.80;;;;;;;;;;5094759;28;20020;-47
2021/06/09 06:07:13;;;;;;;17.42;10.27;;;;;;;;;;5094510;28;20028;-47
2021/06/09 06:09:39;;;;;;;26.35;14.38;;;;;;;;;;5094684;28;20023;-46
2021/06/09 06:12:08;;;;;;;30.00;21.33;;;;;;;;;;5094544;28;20365;-47
2021/06/09 06:14:34;;;;;;;28.67;17.23;;;;;;;;;;5094078;28;20392;-47
2021/06/09 06:17:00;;;;;;;36.67;30.35;;;;;;;;;;5094293;28;20085;-47
2021/06/09 06:19:33;;;;;;;45.05;34.70;;;;;;;;;;5094274;28;20482;-47
2021/06/09 06:21:59;;;;;;;32.03;23.10;;;;;;;;;;5094344;28;20456;-48
2021/06/09 06:24:25;;;;;;;56.17;38.80;;;;;;;;;;5094204;28;20031;-46
2021/06/09 06:26:52;;;;;;;51.10;40.55;;;;;;;;;;5094240;28;20028;-47
2021/06/09 06:29:18;;;;;;;24.30;18.63;;;;;;;;;;5094183;28;20024;-48
2021/06/09 06:31:44;;;;;;;32.55;23.95;;;;;;;;;;5094156;28;20135;-47
2021/06/09 06:34:11;;;;;;;22.48;16.50;;;;;;;;;;5094080;28;20028;-48
2021/06/09 06:36:38;;;;;;;19.05;12.15;;;;;;;;;;5093168;28;20484;-48
2021/06/09 06:39:07;;;;;;;15.70;7.25;;;;;;;;;;5094042;28;20063;-48
2021/06/09 06:41:34;;;;;;;65.53;29.23;;;;;;;;;;5093869;28;20055;-47
2021/06/09 06:44:02;;;;;;;32.97;13.75;;;;;;;;;;5093961;28;20032;-48
2021/06/09 06:46:28;;;;;;;45.08;22.63;;;;;;;;;;5094016;28;20057;-48
2021/06/09 06:48:57;;;;;;;45.67;19.88;;;;;;;;;;5094212;28;20028;-48
2021/06/09 06:51:26;;;;;;;14.80;6.45;;;;;;;;;;5093859;28;20024;-47
2021/06/09 06:53:56;;;;;;;29.63;10.35;;;;;;;;;;5093843;28;20017;-47
2021/06/09 06:56:23;;;;;;;38.92;16.85;;;;;;;;;;5093947;28;20509;-47
2021/06/09 06:58:53;;;;;;;10.32;7.45;;;;;;;;;;5093745;28;20026;-48
2021/06/09 07:01:20;;;;;;;13.27;7.38;;;;;;;;;;5093769;28;20031;-47
2021/06/09 07:03:47;;;;;;;13.07;7.65;;;;;;;;;;5094046;28;20031;-47
2021/06/09 07:06:13;;;;;;;15.48;10.02;;;;;;;;;;5093612;28;20111;-48
2021/06/09 07:08:39;;;;;;;11.88;7.10;;;;;;;;;;5093765;28;20016;-47
2021/06/09 07:11:06;;;;;;;13.32;8.30;;;;;;;;;;5093680;28;20085;-48
2021/06/09 07:13:33;;;;;;;20.00;10.70;;;;;;;;;;5093253;28;20040;-47
2021/06/09 07:16:02;;;;;;;23.05;7.68;;;;;;;;;;5093780;28;20047;-48
2021/06/09 07:18:30;;;;;;;18.95;7.20;;;;;;;;;;5093693;28;20074;-49
2021/06/09 07:20:56;;;;;;;14.30;7.50;;;;;;;;;;5093707;28;20377;-48
2021/06/09 07:23:22;;;;;;;15.50;7.85;;;;;;;;;;5093408;28;20024;-49
2021/06/09 07:25:51;;;;;;;10.70;5.00;;;;;;;;;;5094006;28;20066;-48
2021/06/09 07:28:18;;;;;;;12.40;7.50;;;;;;;;;;5093510;28;20252;-46
2021/06/09 07:30:44;;;;;;;8.25;5.55;;;;;;;;;;5093704;28;20060;-45
2021/06/09 07:33:11;;;;;;;10.70;5.28;;;;;;;;;;5093409;28;20507;-48
2021/06/09 07:35:37;;;;;;;14.30;6.45;;;;;;;;;;5093325;28;20038;-48
2021/06/09 07:38:08;;;;;;;8.38;5.00;;;;;;;;;;5093466;28;20027;-46
2021/06/09 07:40:39;;;;;;;6.72;4.90;;;;;;;;;;5093228;28;20099;-49
2021/06/09 07:43:07;;;;;;;16.15;5.35;;;;;;;;;;5093223;28;20081;-47
2021/06/09 07:45:33;;;;;;;4.88;4.35;;;;;;;;;;5093274;28;20480;-46
2021/06/09 07:48:00;;;;;;;10.27;4.93;;;;;;;;;;5096098;28;20039;-47
2021/06/09 07:50:29;;;;;;;9.68;4.43;;;;;;;;;;5097413;28;20016;-46
2021/06/09 07:53:05;;;;;;;9.73;4.55;;;;;;;;;;5097308;28;20024;-47
2021/06/09 07:55:32;;;;;;;10.70;5.13;;;;;;;;;;5097130;28;20043;-47
2021/06/09 07:57:59;;;;;;;14.98;5.93;;;;;;;;;;5097282;28;20082;-49
2021/06/09 08:00:25;;;;;;;7.57;4.57;;;;;;;;;;5097196;28;20487;-45
2021/06/09 08:02:54;;;;;;;9.20;5.30;;;;;;;;;;5097150;28;20082;-47
2021/06/09 08:05:20;;;;;;;9.32;5.47;;;;;;;;;;5097108;28;20051;-48
2021/06/09 08:07:47;;;;;;;15.60;5.78;;;;;;;;;;5096824;28;20028;-46
2021/06/09 08:10:13;;;;;;;10.43;4.65;;;;;;;;;;5096742;28;20479;-45
2021/06/09 08:12:39;;;;;;;8.98;4.30;;;;;;;;;;5096759;28;20028;-45
2021/06/09 08:15:09;;;;;;;7.88;4.22;;;;;;;;;;5097258;28;20020;-46
2021/06/09 08:17:39;;;;;;;10.52;4.30;;;;;;;;;;5096709;28;20139;-46
2021/06/09 08:20:05;;;;;;;11.05;4.60;;;;;;;;;;5096889;28;20027;-45
2021/06/09 08:22:31;;;;;;;6.70;4.28;;;;;;;;;;5096803;28;20024;-45
2021/06/09 08:24:57;;;;;;;5.45;4.22;;;;;;;;;;5096771;28;20055;-47
2021/06/09 08:27:23;;;;;;;6.97;3.70;;;;;;;;;;5096628;28;20495;-45
2021/06/09 08:29:49;;;;;;;4.38;3.55;;;;;;;;;;5096675;28;20047;-46
2021/06/09 08:32:15;;;;;;;8.15;4.10;;;;;;;;;;5096556;28;20024;-45
2021/06/09 08:34:41;;;;;;;8.20;4.47;;;;;;;;;;5096511;28;20031;-45
2021/06/09 08:37:08;;;;;;;8.10;4.13;;;;;;;;;;5096426;28;20032;-44
2021/06/09 08:39:34;;;;;;;9.13;5.05;;;;;;;;;;5096356;28;20024;-46
2021/06/09 08:42:02;;;;;;;7.25;3.88;;;;;;;;;;5096440;28;20495;-45
2021/06/09 08:44:28;;;;;;;7.38;4.22;;;;;;;;;;5096450;28;20028;-46
2021/06/09 08:46:57;;;;;;;6.35;4.63;;;;;;;;;;5096412;28;20091;-45
2021/06/09 08:49:23;;;;;;;6.38;3.95;;;;;;;;;;5096368;28;20050;-46
2021/06/09 08:51:50;;;;;;;5.38;4.35;;;;;;;;;;5096126;28;20349;-45
2021/06/09 08:54:16;;;;;;;6.18;3.40;;;;;;;;;;5096108;28;20076;-47
2021/06/09 08:56:42;;;;;;;15.82;11.18;;;;;;;;;;5096031;28;20032;-46
2021/06/09 08:59:08;;;;;;;8.18;4.00;;;;;;;;;;5095192;28;20024;-47
2021/06/09 09:01:35;;;;;;;7.40;3.70;;;;;;;;;;5096352;28;20031;-46
2021/06/09 09:04:01;;;;;;;6.22;4.03;;;;;;;;;;5096125;28;20024;-46
2021/06/09 09:06:30;;;;;;;13.07;4.63;;;;;;;;;;5096028;28;20028;-45
2021/06/09 09:08:57;;;;;;;5.63;4.35;;;;;;;;;;5095648;28;20016;-46
2021/06/09 09:11:23;;;;;;;11.45;4.00;;;;;;;;;;5095865;28;20024;-46
2021/06/09 09:13:49;;;;;;;4.18;3.17;;;;;;;;;;5095596;28;20059;-46
2021/06/09 09:16:16;;;;;;;11.20;3.90;;;;;;;;;;5095769;28;20035;-46
2021/06/09 09:18:43;;;;;;;6.45;3.85;;;;;;;;;;5095802;28;20016;-45
2021/06/09 09:21:12;;;;;;;7.53;4.35;;;;;;;;;;5095697;28;20499;-47
2021/06/09 09:23:46;;;;;;;10.57;4.93;;;;;;;;;;5095440;28;20024;-46
2021/06/09 09:26:26;;;;;;;13.70;5.60;;;;;;;;;;5095717;28;20020;-46
2021/06/09 09:29:07;;;;;;;7.85;4.13;;;;;;;;;;5095569;28;20063;-46
2021/06/09 09:31:46;;;;;;;6.43;3.92;;;;;;;;;;5094149;28;20064;-46
2021/06/09 09:34:31;;;;;;;6.93;3.83;;;;;;;;;;5095859;28;20016;-46
2021/06/09 09:37:09;;;;;;;7.20;3.85;;;;;;;;;;5095193;28;20036;-45
2021/06/09 09:39:38;;;;;;;7.15;3.63;;;;;;;;;;5095237;28;20023;-47
2021/06/09 09:42:36;;;;;;;9.93;3.97;;;;;;;;;;5095200;28;20043;-46
2021/06/09 09:45:14;;;;;;;15.50;4.15;;;;;;;;;;5072713;28;20138;-46
2021/06/09 09:47:40;;;;;;;8.95;3.78;;;;;;;;;;5070707;28;20037;-46
2021/06/09 09:50:06;;;;;;;16.67;8.02;;;;;;;;;;5041820;28;20117;-47
2021/06/09 09:52:48;;;;;;;10.40;5.57;;;;;;;;;;5043348;28;20025;-48
2021/06/09 09:55:14;;;;;;;14.93;7.63;;;;;;;;;;5042963;28;20037;-48
2021/06/09 09:57:40;;;;;;;10.70;3.35;;;;;;;;;;5044219;28;20211;-47
2021/06/09 10:00:07;;;;;;;30.20;25.80;;;;;;;;;;5040122;28;20064;-48
2021/06/09 10:02:33;;;;;;;141.50;124.88;;;;;;;;;;5042105;28;20499;-48
2021/06/09 10:05:10;;;;;;;76.63;57.85;;;;;;;;;;5042678;28;20028;-47
2021/06/09 10:07:37;;;;;;;11.18;8.13;;;;;;;;;;5040329;28;20030;-46
2021/06/09 10:10:05;;;;;;;22.92;14.57;;;;;;;;;;5042407;28;20179;-49
2021/06/09 10:12:31;;;;;;;25.30;18.08;;;;;;;;;;5047954;28;20035;-47
2021/06/09 10:14:59;;;;;;;60.53;40.35;;;;;;;;;;5051977;28;20393;-48
2021/06/09 10:17:26;;;;;;;28.00;19.48;;;;;;;;;;5051964;28;20069;-45
2021/06/09 10:20:03;;;;;;;32.85;22.52;;;;;;;;;;5052398;28;20060;-45
2021/06/09 10:22:32;;;;;;;37.65;33.03;;;;;;;;;;5053871;28;20032;-46
2021/06/09 10:25:00;;;;;;;15.45;8.98;;;;;;;;;;5054204;28;20021;-47
2021/06/09 10:27:35;;;;;;;10.98;7.07;;;;;;;;;;5054023;28;20017;-46
2021/06/09 10:30:01;;;;;;;28.85;6.75;;;;;;;;;;5054094;28;20025;-47
2021/06/09 10:32:28;;;;;;;7.38;4.30;;;;;;;;;;5053926;28;20054;-44
2021/06/09 10:34:54;;;;;;;10.98;4.35;;;;;;;;;;5053633;28;20056;-46
2021/06/09 10:37:20;;;;;;;12.70;3.42;;;;;;;;;;5053700;28;20083;-47
2021/06/09 10:39:46;;;;;;;8.20;3.17;;;;;;;;;;5053800;28;20078;-48
2021/06/09 10:42:14;;;;;;;9.70;3.55;;;;;;;;;;5073698;28;20059;-48
2021/06/09 10:44:44;;;;;;;7.00;3.47;;;;;;;;;;5093899;28;20032;-47
2021/06/09 10:47:29;;;;;;;15.93;7.28;;;;;;;;;;5093923;28;20028;-46
2021/06/09 10:49:55;;;;;;;10.85;5.25;;;;;;;;;;5089171;28;20033;-46
2021/06/09 10:52:23;;;;;;;10.75;5.70;;;;;;;;;;5093783;28;20031;-46
2021/06/09 10:54:50;;;;;;;21.25;13.95;;;;;;;;;;5089178;28;20055;-45
2021/06/09 10:57:17;;;;;;;22.67;13.63;;;;;;;;;;5092162;28;20028;-48
2021/06/09 10:59:43;;;;;;;15.93;13.43;;;;;;;;;;5093621;28;20035;-46
2021/06/09 11:02:11;;;;;;;14.93;8.48;;;;;;;;;;5093717;28;20028;-46
2021/06/09 11:04:41;;;;;;;68.10;19.90;;;;;;;;;;5093862;28;20388;-47
2021/06/09 11:07:39;;;;;;;60.95;10.75;;;;;;;;;;5093456;28;20028;-45
2021/06/09 11:10:07;;;;;;;71.57;13.75;;;;;;;;;;5092318;28;20032;-46
2021/06/09 11:12:40;;;;;;;14.00;4.65;;;;;;;;;;5093267;28;20028;-45
2021/06/09 11:15:17;;;;;;;55.92;29.40;;;;;;;;;;5093492;28;20560;-48
2021/06/09 11:17:43;;;;;;;88.80;67.05;;;;;;;;;;5093422;28;20028;-46
2021/06/09 11:20:13;;;;;;;19.60;12.00;;;;;;;;;;5093476;28;20024;-47
2021/06/09 11:22:46;;;;;;;16.65;11.07;;;;;;;;;;5092890;28;20024;-47
2021/06/09 11:25:15;;;;;;;59.03;46.50;;;;;;;;;;5093290;28;20027;-47
2021/06/09 11:27:52;;;;;;;42.60;32.95;;;;;;;;;;5092798;28;20503;-45
2021/06/09 11:30:24;;;;;;;33.60;21.27;;;;;;;;;;5093346;28;20024;-46
2021/06/09 11:32:54;;;;;;;30.58;21.75;;;;;;;;;;5093284;28;20089;-47
2021/06/09 11:35:40;;;;;;;43.23;33.70;;;;;;;;;;5093331;28;20073;-45
2021/06/09 11:38:12;;;;;;;19.83;14.63;;;;;;;;;;5093089;28;20036;-46
2021/06/09 11:40:50;;;;;;;32.13;19.38;;;;;;;;;;5093089;28;20021;-44
2021/06/09 11:43:22;;;;;;;24.63;18.60;;;;;;;;;;5093228;28;20373;-46
2021/06/09 11:46:06;;;;;;;49.20;37.97;;;;;;;;;;5093252;28;20020;-45
2021/06/09 11:48:33;;;;;;;34.90;20.42;;;;;;;;;;5093074;28;20020;-46
2021/06/09 11:51:18;;;;;;;39.83;26.02;;;;;;;;;;5091795;28;20062;-46
2021/06/09 11:53:45;;;;;;;19.10;14.70;;;;;;;;;;5092841;28;20035;-46
2021/06/09 11:56:13;;;;;;;32.90;23.58;;;;;;;;;;5092426;28;20070;-47
2021/06/09 11:58:39;;;;;;;32.17;19.83;;;;;;;;;;5093114;28;20028;-46
2021/06/09 12:01:06;;;;;;;20.58;11.02;;;;;;;;;;5092937;28;20057;-46
2021/06/09 12:03:37;;;;;;;6.70;5.32;;;;;;;;;;5093212;28;20020;-47
2021/06/09 12:06:16;;;;;;;16.10;5.25;;;;;;;;;;5092933;28;20024;-46
2021/06/09 12:08:43;;;;;;;10.77;4.55;;;;;;;;;;5092870;28;20024;-46
2021/06/09 12:11:09;;;;;;;19.42;4.43;;;;;;;;;;5092916;28;20020;-47
2021/06/09 12:13:36;;;;;;;186.13;167.95;;;;;;;;;;5092506;28;20127;-47
2021/06/09 12:16:15;;;;;;;74.00;37.55;;;;;;;;;;5092715;28;20039;-49
2021/06/09 12:18:41;;;;;;;25.23;18.55;;;;;;;;;;5093038;28;20070;-47
2021/06/09 12:21:11;;;;;;;53.78;36.53;;;;;;;;;;5092741;28;20135;-47
2021/06/09 12:23:37;;;;;;;35.83;22.52;;;;;;;;;;5092760;28;20460;-47
2021/06/09 12:26:04;;;;;;;337.63;300.70;;;;;;;;;;5092392;28;20058;-44
2021/06/09 12:28:31;;;;;;;45.53;29.73;;;;;;;;;;5092484;28;20018;-44
2021/06/09 12:30:58;;;;;;;45.25;39.75;;;;;;;;;;5092881;28;20031;-45
2021/06/09 12:33:41;;;;;;;31.05;18.52;;;;;;;;;;5091496;28;20388;-47
2021/06/09 12:36:14;;;;;;;21.80;16.88;;;;;;;;;;5096806;28;20052;-46
2021/06/09 12:38:41;;;;;;;12.15;7.50;;;;;;;;;;5095764;28;20055;-48
2021/06/09 12:41:11;;;;;;;10.13;5.65;;;;;;;;;;5096294;28;20028;-47
2021/06/09 12:43:41;;;;;;;11.70;5.40;;;;;;;;;;5096317;28;20028;-46
2021/06/09 12:46:07;;;;;;;12.10;5.83;;;;;;;;;;5096371;28;20024;-47
2021/06/09 12:48:37;;;;;;;12.00;9.18;;;;;;;;;;5096603;28;20459;-47
2021/06/09 12:51:03;;;;;;;20.00;7.68;;;;;;;;;;5096154;28;20020;-47
2021/06/09 12:53:30;;;;;;;34.00;29.73;;;;;;;;;;5096158;28;20043;-47
2021/06/09 12:56:06;;;;;;;32.50;21.25;;;;;;;;;;5095885;28;20122;-47
2021/06/09 12:58:32;;;;;;;20.77;15.50;;;;;;;;;;5096241;28;20035;-48
2021/06/09 13:00:59;;;;;;;11.68;5.57;;;;;;;;;;5095963;28;20091;-48
2021/06/09 13:03:34;;;;;;;17.73;11.35;;;;;;;;;;5095994;28;20031;-47
2021/06/09 13:06:00;;;;;;;21.35;11.40;;;;;;;;;;5095927;28;20031;-47
2021/06/09 13:08:27;;;;;;;50.83;10.18;;;;;;;;;;5095655;28;20507;-49
2021/06/09 13:11:01;;;;;;;45.55;14.00;;;;;;;;;;5095807;28;20024;-50
2021/06/09 13:13:27;;;;;;;30.25;17.40;;;;;;;;;;5095503;28;20040;-48
2021/06/09 13:15:54;;;;;;;20.27;13.52;;;;;;;;;;5095592;28;20540;-49
2021/06/09 13:18:37;;;;;;;26.48;15.65;;;;;;;;;;5095822;28;20078;-48
2021/06/09 13:21:12;;;;;;;22.83;10.13;;;;;;;;;;5095556;28;20027;-48
2021/06/09 13:23:41;;;;;;;18.05;11.40;;;;;;;;;;5095535;28;20059;-48
2021/06/09 13:26:08;;;;;;;17.20;11.90;;;;;;;;;;5094979;28;20030;-47
2021/06/09 13:28:35;;;;;;;19.63;11.63;;;;;;;;;;5094219;28;20348;-47
2021/06/09 13:31:01;;;;;;;38.63;16.48;;;;;;;;;;5095410;28;20032;-46
2021/06/09 13:33:27;;;;;;;58.60;35.03;;;;;;;;;;5095205;28;20024;-47
2021/06/09 13:35:54;;;;;;;31.75;12.27;;;;;;;;;;5094711;28;20052;-47
2021/06/09 13:38:20;;;;;;;51.38;21.33;;;;;;;;;;5071602;28;20078;-50
2021/06/09 13:40:46;;;;;;;44.25;9.82;;;;;;;;;;5074797;28;20503;-48
2021/06/09 13:43:13;;;;;;;35.28;8.38;;;;;;;;;;5074747;28;20488;-49
2021/06/09 13:45:41;;;;;;;13.27;5.60;;;;;;;;;;5074525;28;20091;-50
2021/06/09 13:48:09;;;;;;;40.95;7.80;;;;;;;;;;5074686;28;20024;-46
2021/06/09 13:50:36;;;;;;;81.05;10.20;;;;;;;;;;5074877;28;20446;-45
2021/06/09 13:53:06;;;;;;;72.93;8.10;;;;;;;;;;5074682;28;20028;-46
2021/06/09 13:55:40;;;;;;;28.55;6.95;;;;;;;;;;5075572;28;20183;-48
2021/06/09 13:58:17;;;;;;;14.45;9.20;;;;;;;;;;5095170;28;20036;-47
2021/06/09 14:00:43;;;;;;;60.17;41.97;;;;;;;;;;5094850;28;20035;-45
2021/06/09 14:03:20;;;;;;;27.38;16.48;;;;;;;;;;5095052;28;20054;-48
2021/06/09 14:05:46;;;;;;;55.22;49.60;;;;;;;;;;5094875;28;20380;-48
2021/06/09 14:08:12;;;;;;;22.20;12.05;;;;;;;;;;5094567;28;20077;-48
2021/06/09 14:10:39;;;;;;;32.72;16.38;;;;;;;;;;5094486;28;20423;-48
2021/06/09 14:13:12;;;;;;;28.73;10.98;;;;;;;;;;5094346;28;20104;-48
2021/06/09 14:15:41;;;;;;;28.83;9.32;;;;;;;;;;5094453;28;20031;-48
2021/06/09 14:18:11;;;;;;;19.90;11.45;;;;;;;;;;5094637;28;20104;-48
2021/06/09 14:20:39;;;;;;;22.00;13.50;;;;;;;;;;5094523;28;20016;-48
2021/06/09 14:23:06;;;;;;;27.63;14.63;;;;;;;;;;5094267;28;20093;-49
2021/06/09 14:25:32;;;;;;;18.48;11.50;;;;;;;;;;5094275;28;20555;-46
2021/06/09 14:28:18;;;;;;;22.98;11.07;;;;;;;;;;5094331;28;20020;-48
2021/06/09 14:30:49;;;;;;;20.70;14.52;;;;;;;;;;5094091;28;20048;-47
2021/06/09 14:33:38;;;;;;;38.28;18.95;;;;;;;;;;5091563;28;20024;-49
2021/06/09 14:36:06;;;;;;;31.48;13.65;;;;;;;;;;5047948;28;20154;-48